sensor_id;sensor_type;location;lat;lon;timestamp;pressure;altitude;pressure_sealevel;temperature
71081;BMP180;58740;50.672;18.690;2023-03-01T00:01:44;100238.00;;;-1.06
71081;BMP180;58740;50.672;18.690;2023-03-01T00:04:12;100241.80;;;-1.00
71081;BMP180;58740;50.672;18.690;2023-03-01T00:06:39;100241.60;;;-1.10
71081;BMP180;58740;50.672;18.690;2023-03-01T00:09:07;100236.40;;;-1.10
71081;BMP180;58740;50.672;18.690;2023-03-01T00:11:35;100228.20;;;-1.10
71081;BMP180;58740;50.672;18.690;2023-03-01T00:14:03;100224.00;;;-1.14
71081;BMP180;58740;50.672;18.690;2023-03-01T00:16:40;100228.60;;;-1.20
71081;BMP180;58740;50.672;18.690;2023-03-01T00:19:15;100227.00;;;-1.20
71081;BMP180;58740;50.672;18.690;2023-03-01T00:21:44;100227.00;;;-1.20
71081;BMP180;58740;50.672;18.690;2023-03-01T00:24:11;100234.40;;;-1.20
71081;BMP180;58740;50.672;18.690;2023-03-01T00:26:39;100231.20;;;-1.20
71081;BMP180;58740;50.672;18.690;2023-03-01T00:29:07;100228.20;;;-1.20
71081;BMP180;58740;50.672;18.690;2023-03-01T00:31:35;100231.00;;;-1.18
71081;BMP180;58740;50.672;18.690;2023-03-01T00:34:05;100230.40;;;-1.20
71081;BMP180;58740;50.672;18.690;2023-03-01T00:36:36;100231.60;;;-1.20
71081;BMP180;58740;50.672;18.690;2023-03-01T00:39:10;100235.00;;;-1.20
71081;BMP180;58740;50.672;18.690;2023-03-01T00:41:38;100228.20;;;-1.20
71081;BMP180;58740;50.672;18.690;2023-03-01T00:44:08;100226.00;;;-1.20
71081;BMP180;58740;50.672;18.690;2023-03-01T00:46:36;100226.00;;;-1.20
71081;BMP180;58740;50.672;18.690;2023-03-01T00:49:04;100218.40;;;-1.30
71081;BMP180;58740;50.672;18.690;2023-03-01T00:51:32;100211.60;;;-1.30
71081;BMP180;58740;50.672;18.690;2023-03-01T00:54:01;100209.60;;;-1.40
71081;BMP180;58740;50.672;18.690;2023-03-01T00:56:30;100209.20;;;-1.40
71081;BMP180;58740;50.672;18.690;2023-03-01T00:59:00;100206.80;;;-1.50
71081;BMP180;58740;50.672;18.690;2023-03-01T01:01:30;100207.80;;;-1.50
71081;BMP180;58740;50.672;18.690;2023-03-01T01:04:09;100204.60;;;-1.58
71081;BMP180;58740;50.672;18.690;2023-03-01T01:06:46;100202.60;;;-1.58
71081;BMP180;58740;50.672;18.690;2023-03-01T01:09:17;100206.20;;;-1.60
71081;BMP180;58740;50.672;18.690;2023-03-01T01:11:48;100208.20;;;-1.60
71081;BMP180;58740;50.672;18.690;2023-03-01T01:14:18;100209.60;;;-1.50
71081;BMP180;58740;50.672;18.690;2023-03-01T01:16:46;100217.20;;;-1.48
71081;BMP180;58740;50.672;18.690;2023-03-01T01:19:14;100206.60;;;-1.40
71081;BMP180;58740;50.672;18.690;2023-03-01T01:21:42;100208.00;;;-1.50
71081;BMP180;58740;50.672;18.690;2023-03-01T01:24:11;100204.60;;;-1.50
71081;BMP180;58740;50.672;18.690;2023-03-01T01:26:40;100204.20;;;-1.60
71081;BMP180;58740;50.672;18.690;2023-03-01T01:29:09;100189.80;;;-1.60
71081;BMP180;58740;50.672;18.690;2023-03-01T01:31:39;100180.80;;;-1.60
71081;BMP180;58740;50.672;18.690;2023-03-01T01:34:13;100180.20;;;-1.64
71081;BMP180;58740;50.672;18.690;2023-03-01T01:36:41;100180.00;;;-1.70
71081;BMP180;58740;50.672;18.690;2023-03-01T01:39:10;100182.00;;;-1.76
71081;BMP180;58740;50.672;18.690;2023-03-01T01:41:42;100190.20;;;-1.80
71081;BMP180;58740;50.672;18.690;2023-03-01T01:47:05;100190.80;;;-1.90
71081;BMP180;58740;50.672;18.690;2023-03-01T01:49:43;100188.20;;;-1.90
71081;BMP180;58740;50.672;18.690;2023-03-01T01:52:23;100186.40;;;-1.90
71081;BMP180;58740;50.672;18.690;2023-03-01T01:55:06;100176.20;;;-1.90
71081;BMP180;58740;50.672;18.690;2023-03-01T01:57:40;100173.40;;;-1.90
71081;BMP180;58740;50.672;18.690;2023-03-01T02:00:22;100171.00;;;-1.90
71081;BMP180;58740;50.672;18.690;2023-03-01T02:03:01;100171.00;;;-1.90
71081;BMP180;58740;50.672;18.690;2023-03-01T02:08:27;100165.60;;;-1.90
71081;BMP180;58740;50.672;18.690;2023-03-01T02:10:57;100166.60;;;-1.90
71081;BMP180;58740;50.672;18.690;2023-03-01T02:13:27;100160.40;;;-1.90
71081;BMP180;58740;50.672;18.690;2023-03-01T02:15:55;100172.00;;;-1.90
71081;BMP180;58740;50.672;18.690;2023-03-01T02:18:24;100169.20;;;-1.90
71081;BMP180;58740;50.672;18.690;2023-03-01T02:21:14;100164.00;;;-1.90
71081;BMP180;58740;50.672;18.690;2023-03-01T02:23:45;100168.40;;;-2.00
71081;BMP180;58740;50.672;18.690;2023-03-01T02:26:21;100161.80;;;-2.00
71081;BMP180;58740;50.672;18.690;2023-03-01T02:28:51;100167.80;;;-2.00
71081;BMP180;58740;50.672;18.690;2023-03-01T02:31:21;100166.00;;;-2.02
71081;BMP180;58740;50.672;18.690;2023-03-01T02:34:21;100164.40;;;-2.00
71081;BMP180;58740;50.672;18.690;2023-03-01T02:37:11;100162.20;;;-2.00
71081;BMP180;58740;50.672;18.690;2023-03-01T02:39:47;100165.80;;;-2.00
71081;BMP180;58740;50.672;18.690;2023-03-01T02:42:25;100166.40;;;-2.06
71081;BMP180;58740;50.672;18.690;2023-03-01T02:44:54;100165.80;;;-2.00
71081;BMP180;58740;50.672;18.690;2023-03-01T02:47:22;100168.20;;;-2.08
71081;BMP180;58740;50.672;18.690;2023-03-01T02:49:49;100170.60;;;-2.10
71081;BMP180;58740;50.672;18.690;2023-03-01T02:52:39;100173.40;;;-2.08
71081;BMP180;58740;50.672;18.690;2023-03-01T02:55:14;100175.60;;;-2.10
71081;BMP180;58740;50.672;18.690;2023-03-01T02:57:45;100176.60;;;-2.10
71081;BMP180;58740;50.672;18.690;2023-03-01T03:00:20;100183.40;;;-2.20
71081;BMP180;58740;50.672;18.690;2023-03-01T03:02:53;100169.00;;;-2.30
71081;BMP180;58740;50.672;18.690;2023-03-01T03:05:26;100173.60;;;-2.30
71081;BMP180;58740;50.672;18.690;2023-03-01T03:07:55;100173.00;;;-2.40
71081;BMP180;58740;50.672;18.690;2023-03-01T03:10:37;100179.20;;;-2.40
71081;BMP180;58740;50.672;18.690;2023-03-01T03:13:13;100188.40;;;-2.40
71081;BMP180;58740;50.672;18.690;2023-03-01T03:15:43;100185.20;;;-2.32
71081;BMP180;58740;50.672;18.690;2023-03-01T03:18:15;100180.60;;;-2.30
71081;BMP180;58740;50.672;18.690;2023-03-01T03:20:44;100170.80;;;-2.20
71081;BMP180;58740;50.672;18.690;2023-03-01T03:23:13;100168.40;;;-2.20
71081;BMP180;58740;50.672;18.690;2023-03-01T03:25:41;100164.00;;;-2.20
71081;BMP180;58740;50.672;18.690;2023-03-01T03:28:09;100154.40;;;-2.20
71081;BMP180;58740;50.672;18.690;2023-03-01T03:30:40;100150.20;;;-2.30
71081;BMP180;58740;50.672;18.690;2023-03-01T03:33:10;100150.20;;;-2.30
71081;BMP180;58740;50.672;18.690;2023-03-01T03:35:48;100150.80;;;-2.30
71081;BMP180;58740;50.672;18.690;2023-03-01T03:38:19;100149.20;;;-2.40
71081;BMP180;58740;50.672;18.690;2023-03-01T03:40:55;100141.80;;;-2.50
71081;BMP180;58740;50.672;18.690;2023-03-01T03:43:33;100146.40;;;-2.50
71081;BMP180;58740;50.672;18.690;2023-03-01T03:46:02;100149.80;;;-2.60
71081;BMP180;58740;50.672;18.690;2023-03-01T03:48:39;100141.00;;;-2.60
71081;BMP180;58740;50.672;18.690;2023-03-01T03:51:11;100147.00;;;-2.52
71081;BMP180;58740;50.672;18.690;2023-03-01T03:53:40;100145.60;;;-2.50
71081;BMP180;58740;50.672;18.690;2023-03-01T03:56:09;100141.20;;;-2.42
71081;BMP180;58740;50.672;18.690;2023-03-01T03:58:37;100142.80;;;-2.40
71081;BMP180;58740;50.672;18.690;2023-03-01T04:01:05;100143.80;;;-2.40
71081;BMP180;58740;50.672;18.690;2023-03-01T04:03:34;100144.40;;;-2.30
71081;BMP180;58740;50.672;18.690;2023-03-01T04:06:03;100137.00;;;-2.30
71081;BMP180;58740;50.672;18.690;2023-03-01T04:08:31;100137.20;;;-2.30
71081;BMP180;58740;50.672;18.690;2023-03-01T04:11:02;100135.40;;;-2.30
71081;BMP180;58740;50.672;18.690;2023-03-01T04:13:52;100130.00;;;-2.30
71081;BMP180;58740;50.672;18.690;2023-03-01T04:16:20;100135.40;;;-2.40
71081;BMP180;58740;50.672;18.690;2023-03-01T04:18:48;100137.20;;;-2.46
71081;BMP180;58740;50.672;18.690;2023-03-01T04:21:16;100133.80;;;-2.50
71081;BMP180;58740;50.672;18.690;2023-03-01T04:23:44;100131.60;;;-2.50
71081;BMP180;58740;50.672;18.690;2023-03-01T04:26:12;100135.60;;;-2.60
71081;BMP180;58740;50.672;18.690;2023-03-01T04:28:42;100129.80;;;-2.60
71081;BMP180;58740;50.672;18.690;2023-03-01T04:31:17;100138.60;;;-2.70
71081;BMP180;58740;50.672;18.690;2023-03-01T04:33:54;100137.40;;;-2.70
71081;BMP180;58740;50.672;18.690;2023-03-01T04:36:28;100142.20;;;-2.70
71081;BMP180;58740;50.672;18.690;2023-03-01T04:38:57;100144.20;;;-2.70
71081;BMP180;58740;50.672;18.690;2023-03-01T04:41:25;100138.40;;;-2.60
71081;BMP180;58740;50.672;18.690;2023-03-01T04:43:53;100139.00;;;-2.50
71081;BMP180;58740;50.672;18.690;2023-03-01T04:46:21;100138.60;;;-2.50
71081;BMP180;58740;50.672;18.690;2023-03-01T04:48:49;100137.80;;;-2.50
71081;BMP180;58740;50.672;18.690;2023-03-01T04:51:17;100135.20;;;-2.52
71081;BMP180;58740;50.672;18.690;2023-03-01T04:53:46;100133.00;;;-2.60
71081;BMP180;58740;50.672;18.690;2023-03-01T04:56:15;100125.00;;;-2.60
71081;BMP180;58740;50.672;18.690;2023-03-01T04:58:44;100129.00;;;-2.60
71081;BMP180;58740;50.672;18.690;2023-03-01T05:01:18;100115.80;;;-2.60
71081;BMP180;58740;50.672;18.690;2023-03-01T05:03:50;100116.40;;;-2.70
71081;BMP180;58740;50.672;18.690;2023-03-01T05:06:20;100116.60;;;-2.70
71081;BMP180;58740;50.672;18.690;2023-03-01T05:08:48;100123.20;;;-2.70
71081;BMP180;58740;50.672;18.690;2023-03-01T05:11:16;100121.40;;;-2.80
71081;BMP180;58740;50.672;18.690;2023-03-01T05:13:44;100131.20;;;-2.80
71081;BMP180;58740;50.672;18.690;2023-03-01T05:16:12;100132.20;;;-2.80
71081;BMP180;58740;50.672;18.690;2023-03-01T05:18:40;100136.60;;;-2.80
71081;BMP180;58740;50.672;18.690;2023-03-01T05:21:13;100135.20;;;-2.80
71081;BMP180;58740;50.672;18.690;2023-03-01T05:23:44;100133.40;;;-2.70
71081;BMP180;58740;50.672;18.690;2023-03-01T05:26:16;100131.20;;;-2.70
71081;BMP180;58740;50.672;18.690;2023-03-01T05:29:00;100133.20;;;-2.70
71081;BMP180;58740;50.672;18.690;2023-03-01T05:31:28;100142.00;;;-2.70
71081;BMP180;58740;50.672;18.690;2023-03-01T05:33:58;100140.20;;;-2.70
71081;BMP180;58740;50.672;18.690;2023-03-01T05:36:26;100139.40;;;-2.70
71081;BMP180;58740;50.672;18.690;2023-03-01T05:38:53;100142.60;;;-2.60
71081;BMP180;58740;50.672;18.690;2023-03-01T05:41:21;100140.20;;;-2.60
71081;BMP180;58740;50.672;18.690;2023-03-01T05:43:49;100139.40;;;-2.60
71081;BMP180;58740;50.672;18.690;2023-03-01T05:46:17;100143.00;;;-2.60
71081;BMP180;58740;50.672;18.690;2023-03-01T05:48:45;100150.20;;;-2.60
71081;BMP180;58740;50.672;18.690;2023-03-01T05:51:12;100149.40;;;-2.60
71081;BMP180;58740;50.672;18.690;2023-03-01T05:53:40;100149.80;;;-2.68
71081;BMP180;58740;50.672;18.690;2023-03-01T05:56:09;100153.00;;;-2.68
71081;BMP180;58740;50.672;18.690;2023-03-01T05:58:36;100154.20;;;-2.70
71081;BMP180;58740;50.672;18.690;2023-03-01T06:01:12;100154.20;;;-2.70
71081;BMP180;58740;50.672;18.690;2023-03-01T06:03:41;100152.60;;;-2.62
71081;BMP180;58740;50.672;18.690;2023-03-01T06:06:09;100146.20;;;-2.60
71081;BMP180;58740;50.672;18.690;2023-03-01T06:08:37;100154.60;;;-2.56
71081;BMP180;58740;50.672;18.690;2023-03-01T06:11:04;100153.80;;;-2.50
71081;BMP180;58740;50.672;18.690;2023-03-01T06:13:33;100154.80;;;-2.42
71081;BMP180;58740;50.672;18.690;2023-03-01T06:16:00;100156.20;;;-2.40
71081;BMP180;58740;50.672;18.690;2023-03-01T06:18:28;100155.00;;;-2.30
71081;BMP180;58740;50.672;18.690;2023-03-01T06:20:56;100155.20;;;-2.24
71081;BMP180;58740;50.672;18.690;2023-03-01T06:23:25;100157.00;;;-2.20
71081;BMP180;58740;50.672;18.690;2023-03-01T06:25:53;100153.00;;;-2.10
71081;BMP180;58740;50.672;18.690;2023-03-01T06:28:21;100155.20;;;-2.10
71081;BMP180;58740;50.672;18.690;2023-03-01T06:30:52;100153.00;;;-2.00
71081;BMP180;58740;50.672;18.690;2023-03-01T06:33:20;100149.00;;;-2.00
71081;BMP180;58740;50.672;18.690;2023-03-01T06:35:50;100146.00;;;-1.96
71081;BMP180;58740;50.672;18.690;2023-03-01T06:38:18;100145.40;;;-1.90
71081;BMP180;58740;50.672;18.690;2023-03-01T06:40:52;100137.00;;;-1.90
71081;BMP180;58740;50.672;18.690;2023-03-01T06:43:22;100139.00;;;-1.80
71081;BMP180;58740;50.672;18.690;2023-03-01T06:45:50;100135.00;;;-1.68
71081;BMP180;58740;50.672;18.690;2023-03-01T06:48:18;100137.00;;;-1.60
71081;BMP180;58740;50.672;18.690;2023-03-01T06:50:46;100126.40;;;-1.50
71081;BMP180;58740;50.672;18.690;2023-03-01T06:53:14;100122.60;;;-1.40
71081;BMP180;58740;50.672;18.690;2023-03-01T06:55:42;100116.40;;;-1.30
71081;BMP180;58740;50.672;18.690;2023-03-01T06:58:10;100111.80;;;-1.24
71081;BMP180;58740;50.672;18.690;2023-03-01T07:00:38;100116.20;;;-1.20
71081;BMP180;58740;50.672;18.690;2023-03-01T07:03:08;100118.00;;;-1.10
71081;BMP180;58740;50.672;18.690;2023-03-01T07:05:36;100115.40;;;-1.04
71081;BMP180;58740;50.672;18.690;2023-03-01T07:08:04;100118.40;;;-1.00
71081;BMP180;58740;50.672;18.690;2023-03-01T07:10:32;100117.00;;;-0.90
71081;BMP180;58740;50.672;18.690;2023-03-01T07:13:00;100126.20;;;-0.88
71081;BMP180;58740;50.672;18.690;2023-03-01T07:15:28;100117.80;;;-0.80
71081;BMP180;58740;50.672;18.690;2023-03-01T07:17:56;100120.60;;;-0.76
71081;BMP180;58740;50.672;18.690;2023-03-01T07:20:24;100127.00;;;-0.70
71081;BMP180;58740;50.672;18.690;2023-03-01T07:22:54;100123.40;;;-0.70
71081;BMP180;58740;50.672;18.690;2023-03-01T07:25:22;100124.60;;;-0.68
71081;BMP180;58740;50.672;18.690;2023-03-01T07:27:53;100130.00;;;-0.60
71081;BMP180;58740;50.672;18.690;2023-03-01T07:30:22;100135.80;;;-0.50
71081;BMP180;58740;50.672;18.690;2023-03-01T07:32:54;100127.20;;;-0.40
71081;BMP180;58740;50.672;18.690;2023-03-01T07:35:25;100122.20;;;-0.30
71081;BMP180;58740;50.672;18.690;2023-03-01T07:37:54;100125.40;;;-0.20
71081;BMP180;58740;50.672;18.690;2023-03-01T07:40:22;100125.20;;;-0.06
71081;BMP180;58740;50.672;18.690;2023-03-01T07:42:55;100122.40;;;0.02
71081;BMP180;58740;50.672;18.690;2023-03-01T07:45:25;100121.40;;;0.10
71081;BMP180;58740;50.672;18.690;2023-03-01T07:47:54;100115.00;;;0.20
71081;BMP180;58740;50.672;18.690;2023-03-01T07:50:22;100105.80;;;0.30
71081;BMP180;58740;50.672;18.690;2023-03-01T07:52:51;100110.40;;;0.40
71081;BMP180;58740;50.672;18.690;2023-03-01T07:55:18;100108.00;;;0.40
71081;BMP180;58740;50.672;18.690;2023-03-01T07:57:47;100107.60;;;0.50
71081;BMP180;58740;50.672;18.690;2023-03-01T08:00:15;100108.00;;;0.52
71081;BMP180;58740;50.672;18.690;2023-03-01T08:02:43;100105.80;;;0.60
71081;BMP180;58740;50.672;18.690;2023-03-01T08:05:11;100092.80;;;0.70
71081;BMP180;58740;50.672;18.690;2023-03-01T08:07:39;100091.20;;;0.80
71081;BMP180;58740;50.672;18.690;2023-03-01T08:10:07;100092.20;;;0.82
71081;BMP180;58740;50.672;18.690;2023-03-01T08:12:35;100089.80;;;0.90
71081;BMP180;58740;50.672;18.690;2023-03-01T08:15:04;100094.20;;;1.00
71081;BMP180;58740;50.672;18.690;2023-03-01T08:17:32;100091.60;;;1.00
71081;BMP180;58740;50.672;18.690;2023-03-01T08:19:59;100085.60;;;1.10
71081;BMP180;58740;50.672;18.690;2023-03-01T08:22:28;100084.20;;;1.10
71081;BMP180;58740;50.672;18.690;2023-03-01T08:24:55;100083.80;;;1.20
71081;BMP180;58740;50.672;18.690;2023-03-01T08:27:23;100082.40;;;1.20
71081;BMP180;58740;50.672;18.690;2023-03-01T08:29:52;100081.40;;;1.30
71081;BMP180;58740;50.672;18.690;2023-03-01T08:32:20;100083.00;;;1.40
71081;BMP180;58740;50.672;18.690;2023-03-01T08:34:48;100081.00;;;1.42
71081;BMP180;58740;50.672;18.690;2023-03-01T08:37:15;100082.80;;;1.50
71081;BMP180;58740;50.672;18.690;2023-03-01T08:39:43;100092.40;;;1.60
71081;BMP180;58740;50.672;18.690;2023-03-01T08:42:11;100084.00;;;1.64
71081;BMP180;58740;50.672;18.690;2023-03-01T08:44:39;100086.40;;;1.70
71081;BMP180;58740;50.672;18.690;2023-03-01T08:47:06;100087.80;;;1.80
71081;BMP180;58740;50.672;18.690;2023-03-01T08:49:34;100087.00;;;1.80
71081;BMP180;58740;50.672;18.690;2023-03-01T08:52:02;100078.60;;;1.90
71081;BMP180;58740;50.672;18.690;2023-03-01T08:54:30;100079.80;;;1.90
71081;BMP180;58740;50.672;18.690;2023-03-01T08:57:01;100070.00;;;2.00
71081;BMP180;58740;50.672;18.690;2023-03-01T08:59:29;100080.40;;;2.00
71081;BMP180;58740;50.672;18.690;2023-03-01T09:01:57;100081.20;;;2.10
71081;BMP180;58740;50.672;18.690;2023-03-01T09:04:25;100078.20;;;2.10
71081;BMP180;58740;50.672;18.690;2023-03-01T09:06:53;100078.20;;;2.10
71081;BMP180;58740;50.672;18.690;2023-03-01T09:09:20;100079.00;;;2.10
71081;BMP180;58740;50.672;18.690;2023-03-01T09:11:48;100069.60;;;2.10
71081;BMP180;58740;50.672;18.690;2023-03-01T09:14:17;100064.40;;;2.10
71081;BMP180;58740;50.672;18.690;2023-03-01T09:16:45;100064.40;;;2.10
71081;BMP180;58740;50.672;18.690;2023-03-01T09:19:14;100056.20;;;2.18
71081;BMP180;58740;50.672;18.690;2023-03-01T09:21:42;100051.20;;;2.20
71081;BMP180;58740;50.672;18.690;2023-03-01T09:24:22;100053.20;;;2.20
71081;BMP180;58740;50.672;18.690;2023-03-01T09:26:54;100051.40;;;2.20
71081;BMP180;58740;50.672;18.690;2023-03-01T09:29:23;100054.40;;;2.20
71081;BMP180;58740;50.672;18.690;2023-03-01T09:31:51;100054.80;;;2.30
71081;BMP180;58740;50.672;18.690;2023-03-01T09:34:23;100054.40;;;2.30
71081;BMP180;58740;50.672;18.690;2023-03-01T09:36:51;100058.40;;;2.30
71081;BMP180;58740;50.672;18.690;2023-03-01T09:39:20;100055.80;;;2.36
71081;BMP180;58740;50.672;18.690;2023-03-01T09:42:03;100052.20;;;2.40
71081;BMP180;58740;50.672;18.690;2023-03-01T09:44:44;100050.20;;;2.40
71081;BMP180;58740;50.672;18.690;2023-03-01T09:47:22;100050.60;;;2.42
71081;BMP180;58740;50.672;18.690;2023-03-01T09:50:18;100053.20;;;2.50
71081;BMP180;58740;50.672;18.690;2023-03-01T09:53:00;100055.60;;;2.50
71081;BMP180;58740;50.672;18.690;2023-03-01T09:56:24;100055.40;;;2.50
71081;BMP180;58740;50.672;18.690;2023-03-01T09:59:25;100048.60;;;2.50
71081;BMP180;58740;50.672;18.690;2023-03-01T10:02:45;100045.40;;;2.50
71081;BMP180;58740;50.672;18.690;2023-03-01T10:09:35;100047.80;;;2.50
71081;BMP180;58740;50.672;18.690;2023-03-01T10:11:56;100046.00;;;2.52
71081;BMP180;58740;50.672;18.690;2023-03-01T10:14:41;100046.40;;;2.58
71081;BMP180;58740;50.672;18.690;2023-03-01T10:17:33;100051.00;;;2.58
71081;BMP180;58740;50.672;18.690;2023-03-01T10:20:25;100044.20;;;2.50
71081;BMP180;58740;50.672;18.690;2023-03-01T10:22:53;100043.60;;;2.58
71081;BMP180;58740;50.672;18.690;2023-03-01T10:28:25;100049.20;;;2.60
71081;BMP180;58740;50.672;18.690;2023-03-01T10:30:53;100048.00;;;2.60
71081;BMP180;58740;50.672;18.690;2023-03-01T10:33:32;100043.00;;;2.60
71081;BMP180;58740;50.672;18.690;2023-03-01T10:36:03;100036.20;;;2.66
71081;BMP180;58740;50.672;18.690;2023-03-01T10:38:55;100029.80;;;2.70
71081;BMP180;58740;50.672;18.690;2023-03-01T10:41:26;100027.40;;;2.70
71081;BMP180;58740;50.672;18.690;2023-03-01T10:43:58;100025.80;;;2.80
71081;BMP180;58740;50.672;18.690;2023-03-01T10:46:34;100020.80;;;2.80
71081;BMP180;58740;50.672;18.690;2023-03-01T10:49:17;100016.20;;;2.82
71081;BMP180;58740;50.672;18.690;2023-03-01T10:51:51;100016.80;;;2.90
71081;BMP180;58740;50.672;18.690;2023-03-01T10:54:27;100005.80;;;2.90
71081;BMP180;58740;50.672;18.690;2023-03-01T10:56:59;100003.20;;;2.98
71081;BMP180;58740;50.672;18.690;2023-03-01T10:59:33;100003.80;;;3.00
71081;BMP180;58740;50.672;18.690;2023-03-01T11:07:58;99999.80;;;3.12
71081;BMP180;58740;50.672;18.690;2023-03-01T11:10:34;100004.80;;;3.20
71081;BMP180;58740;50.672;18.690;2023-03-01T11:13:18;99999.40;;;3.20
71081;BMP180;58740;50.672;18.690;2023-03-01T11:16:02;99998.20;;;3.30
71081;BMP180;58740;50.672;18.690;2023-03-01T11:18:31;99995.60;;;3.30
71081;BMP180;58740;50.672;18.690;2023-03-01T11:21:16;99996.80;;;3.30
71081;BMP180;58740;50.672;18.690;2023-03-01T11:23:46;99992.20;;;3.32
71081;BMP180;58740;50.672;18.690;2023-03-01T11:26:16;99983.20;;;3.38
71081;BMP180;58740;50.672;18.690;2023-03-01T11:28:51;99986.80;;;3.40
71081;BMP180;58740;50.672;18.690;2023-03-01T11:31:24;99979.60;;;3.40
71081;BMP180;58740;50.672;18.690;2023-03-01T11:34:05;99981.80;;;3.40
71081;BMP180;58740;50.672;18.690;2023-03-01T11:36:41;99976.20;;;3.40
71081;BMP180;58740;50.672;18.690;2023-03-01T11:39:46;99981.60;;;3.46
71081;BMP180;58740;50.672;18.690;2023-03-01T11:42:46;99978.20;;;3.50
71081;BMP180;58740;50.672;18.690;2023-03-01T11:45:16;99967.40;;;3.50
71081;BMP180;58740;50.672;18.690;2023-03-01T11:48:02;99961.80;;;3.50
71081;BMP180;58740;50.672;18.690;2023-03-01T11:50:44;99955.00;;;3.58
71081;BMP180;58740;50.672;18.690;2023-03-01T11:56:44;99950.00;;;3.60
71081;BMP180;58740;50.672;18.690;2023-03-01T12:05:12;99953.40;;;3.70
71081;BMP180;58740;50.672;18.690;2023-03-01T12:08:09;99952.20;;;3.70
71081;BMP180;58740;50.672;18.690;2023-03-01T12:10:59;99948.60;;;3.76
71081;BMP180;58740;50.672;18.690;2023-03-01T12:14:22;99943.00;;;3.80
71081;BMP180;58740;50.672;18.690;2023-03-01T12:17:11;99935.80;;;3.82
71081;BMP180;58740;50.672;18.690;2023-03-01T12:23:20;99932.80;;;3.90
71081;BMP180;58740;50.672;18.690;2023-03-01T12:29:01;99925.80;;;4.00
71081;BMP180;58740;50.672;18.690;2023-03-01T12:32:02;99917.40;;;4.00
71081;BMP180;58740;50.672;18.690;2023-03-01T12:49:06;99904.60;;;4.20
71081;BMP180;58740;50.672;18.690;2023-03-01T12:51:37;99903.00;;;4.20
71081;BMP180;58740;50.672;18.690;2023-03-01T12:54:15;99905.60;;;4.28
71081;BMP180;58740;50.672;18.690;2023-03-01T12:56:46;99906.00;;;4.30
71081;BMP180;58740;50.672;18.690;2023-03-01T13:02:26;99898.60;;;4.30
71081;BMP180;58740;50.672;18.690;2023-03-01T13:05:18;99896.60;;;4.30
71081;BMP180;58740;50.672;18.690;2023-03-01T13:08:02;99893.60;;;4.30
71081;BMP180;58740;50.672;18.690;2023-03-01T13:10:46;99889.20;;;4.40
71081;BMP180;58740;50.672;18.690;2023-03-01T13:13:26;99881.80;;;4.40
71081;BMP180;58740;50.672;18.690;2023-03-01T13:15:55;99879.00;;;4.40
71081;BMP180;58740;50.672;18.690;2023-03-01T13:20:58;99873.40;;;4.40
71081;BMP180;58740;50.672;18.690;2023-03-01T13:23:32;99871.20;;;4.40
71081;BMP180;58740;50.672;18.690;2023-03-01T13:26:11;99873.20;;;4.40
71081;BMP180;58740;50.672;18.690;2023-03-01T13:33:48;99868.80;;;4.40
71081;BMP180;58740;50.672;18.690;2023-03-01T13:39:04;99868.00;;;4.50
71081;BMP180;58740;50.672;18.690;2023-03-01T13:49:56;99860.00;;;4.50
71081;BMP180;58740;50.672;18.690;2023-03-01T13:52:38;99865.40;;;4.50
71081;BMP180;58740;50.672;18.690;2023-03-01T13:55:41;99858.00;;;4.50
71081;BMP180;58740;50.672;18.690;2023-03-01T14:00:47;99860.00;;;4.50
71081;BMP180;58740;50.672;18.690;2023-03-01T14:03:19;99853.20;;;4.50
71081;BMP180;58740;50.672;18.690;2023-03-01T14:06:12;99859.40;;;4.50
71081;BMP180;58740;50.672;18.690;2023-03-01T14:08:52;99849.00;;;4.50
71081;BMP180;58740;50.672;18.690;2023-03-01T14:14:10;99841.20;;;4.50
71081;BMP180;58740;50.672;18.690;2023-03-01T14:17:38;99837.20;;;4.50
71081;BMP180;58740;50.672;18.690;2023-03-01T14:20:37;99836.20;;;4.50
71081;BMP180;58740;50.672;18.690;2023-03-01T14:23:13;99840.40;;;4.50
71081;BMP180;58740;50.672;18.690;2023-03-01T14:25:48;99838.60;;;4.50
71081;BMP180;58740;50.672;18.690;2023-03-01T14:28:21;99835.40;;;4.52
71081;BMP180;58740;50.672;18.690;2023-03-01T14:30:56;99827.20;;;4.54
71081;BMP180;58740;50.672;18.690;2023-03-01T14:33:31;99824.20;;;4.58
71081;BMP180;58740;50.672;18.690;2023-03-01T14:36:12;99818.40;;;4.60
71081;BMP180;58740;50.672;18.690;2023-03-01T14:38:44;99817.60;;;4.60
71081;BMP180;58740;50.672;18.690;2023-03-01T14:41:21;99822.60;;;4.60
71081;BMP180;58740;50.672;18.690;2023-03-01T14:43:57;99822.60;;;4.60
71081;BMP180;58740;50.672;18.690;2023-03-01T14:46:44;99823.60;;;4.60
71081;BMP180;58740;50.672;18.690;2023-03-01T14:49:17;99817.40;;;4.50
71081;BMP180;58740;50.672;18.690;2023-03-01T14:52:02;99813.60;;;4.52
71081;BMP180;58740;50.672;18.690;2023-03-01T14:54:51;99803.20;;;4.50
71081;BMP180;58740;50.672;18.690;2023-03-01T14:57:24;99800.40;;;4.50
71081;BMP180;58740;50.672;18.690;2023-03-01T14:59:58;99802.60;;;4.50
71081;BMP180;58740;50.672;18.690;2023-03-01T15:02:30;99800.60;;;4.50
71081;BMP180;58740;50.672;18.690;2023-03-01T15:05:02;99797.60;;;4.50
71081;BMP180;58740;50.672;18.690;2023-03-01T15:07:40;99792.20;;;4.50
71081;BMP180;58740;50.672;18.690;2023-03-01T15:10:21;99789.40;;;4.50
71081;BMP180;58740;50.672;18.690;2023-03-01T15:12:50;99783.80;;;4.50
71081;BMP180;58740;50.672;18.690;2023-03-01T15:18:01;99782.80;;;4.50
71081;BMP180;58740;50.672;18.690;2023-03-01T15:20:32;99787.40;;;4.50
71081;BMP180;58740;50.672;18.690;2023-03-01T15:23:03;99787.00;;;4.50
71081;BMP180;58740;50.672;18.690;2023-03-01T15:25:32;99786.80;;;4.50
71081;BMP180;58740;50.672;18.690;2023-03-01T15:28:02;99792.40;;;4.50
71081;BMP180;58740;50.672;18.690;2023-03-01T15:30:35;99796.20;;;4.50
71081;BMP180;58740;50.672;18.690;2023-03-01T15:35:57;99801.80;;;4.40
71081;BMP180;58740;50.672;18.690;2023-03-01T15:38:36;99800.00;;;4.40
71081;BMP180;58740;50.672;18.690;2023-03-01T15:41:47;99799.40;;;4.40
71081;BMP180;58740;50.672;18.690;2023-03-01T15:44:36;99793.20;;;4.40
71081;BMP180;58740;50.672;18.690;2023-03-01T15:47:30;99795.00;;;4.40
71081;BMP180;58740;50.672;18.690;2023-03-01T15:49:59;99801.80;;;4.30
71081;BMP180;58740;50.672;18.690;2023-03-01T15:52:38;99808.00;;;4.30